Time;durP1;ratioP1;P1;durP2;ratioP2;P2;SDS_P1;SDS_P2;PMS_P1;PMS_P2;Temp;Humidity;BMP_temperature;BMP_pressure;BME280_temperature;BME280_humidity;BME280_pressure;Samples;Min_cycle;Max_cycle;Signal;HPM_P1;HPM_P2
2023/09/16 00:01:08;;;;;;;5.88;3.60;;;;;;;13.21;100.00;100133.00;5034642;28;20026;-92
2023/09/16 00:03:35;;;;;;;9.00;4.63;;;;;;;13.19;100.00;100132.31;5034430;28;20053;-92
2023/09/16 00:06:01;;;;;;;11.60;4.50;;;;;;;13.14;100.00;100134.38;5019934;28;20068;-91
2023/09/16 00:08:26;;;;;;;7.53;3.95;;;;;;;13.11;100.00;100137.22;5014887;28;20029;-92
2023/09/16 00:10:52;;;;;;;6.82;4.18;;;;;;;13.05;100.00;100138.50;5019964;28;20025;-92
2023/09/16 00:13:18;;;;;;;3.95;3.38;;;;;;;13.03;100.00;100142.13;5033938;28;20476;-92
2023/09/16 00:15:48;;;;;;;8.18;3.55;;;;;;;13.05;100.00;100140.25;5034651;28;20030;-92
2023/09/16 00:18:17;;;;;;;7.35;3.40;;;;;;;13.06;100.00;100136.72;5032482;28;20509;-91
2023/09/16 00:20:43;;;;;;;4.38;3.30;;;;;;;13.05;100.00;100133.31;5028580;28;20401;-92
2023/09/16 00:23:10;;;;;;;4.78;3.28;;;;;;;12.94;100.00;100142.78;5013868;28;20056;-93
2023/09/16 00:25:36;;;;;;;5.18;3.55;;;;;;;13.01;100.00;100144.00;5018773;28;20077;-92
2023/09/16 00:28:01;;;;;;;6.75;3.28;;;;;;;12.93;100.00;100136.78;5033646;28;20533;-92
2023/09/16 00:30:27;;;;;;;4.10;3.13;;;;;;;12.92;100.00;100134.28;5033943;28;20463;-93
2023/09/16 00:32:52;;;;;;;6.68;3.55;;;;;;;12.84;100.00;100138.25;5033447;28;20017;-92
2023/09/16 00:35:18;;;;;;;4.72;3.55;;;;;;;12.89;100.00;100129.34;5033762;28;20029;-92
2023/09/16 00:37:44;;;;;;;8.02;3.85;;;;;;;12.93;100.00;100125.59;5032320;28;20028;-94
2023/09/16 00:40:10;;;;;;;8.38;4.50;;;;;;;13.01;100.00;100124.09;5033232;28;20391;-92
2023/09/16 00:42:38;;;;;;;5.88;3.95;;;;;;;12.99;100.00;100125.16;5033236;28;20029;-93
2023/09/16 00:45:05;;;;;;;6.72;3.97;;;;;;;12.96;100.00;100125.38;5033008;28;20029;-93
2023/09/16 00:47:32;;;;;;;9.25;4.53;;;;;;;12.98;100.00;100116.56;5033408;28;20497;-93
2023/09/16 00:49:57;;;;;;;5.35;3.47;;;;;;;12.92;100.00;100108.41;5032988;28;20430;-92
2023/09/16 00:52:23;;;;;;;7.88;4.93;;;;;;;12.87;100.00;100106.13;5032975;28;20029;-93
2023/09/16 00:54:51;;;;;;;8.45;4.38;;;;;;;12.87;100.00;100106.13;5032740;28;20029;-94
2023/09/16 00:57:17;;;;;;;6.07;4.05;;;;;;;12.87;100.00;100111.31;5031767;28;20117;-92
2023/09/16 00:59:44;;;;;;;7.25;4.50;;;;;;;12.82;100.00;100103.88;5031724;28;20120;-93
2023/09/16 01:02:09;;;;;;;5.75;4.63;;;;;;;12.88;100.00;100101.81;5032965;28;20029;-93
2023/09/16 01:04:36;;;;;;;8.75;4.57;;;;;;;12.91;100.00;100109.34;5032818;28;20485;-93
2023/09/16 01:07:02;;;;;;;5.93;4.40;;;;;;;12.84;100.00;100103.78;5031756;28;20116;-93
2023/09/16 01:09:29;;;;;;;6.28;5.25;;;;;;;12.79;100.00;100098.91;5032851;28;20045;-92
2023/09/16 01:11:54;;;;;;;7.60;5.20;;;;;;;12.77;100.00;100105.16;5030967;28;20479;-93
2023/09/16 01:14:20;;;;;;;6.68;5.72;;;;;;;12.72;100.00;100102.88;5032581;28;20096;-92
2023/09/16 01:16:51;;;;;;;8.30;5.68;;;;;;;12.76;100.00;100104.31;5032903;28;20036;-94
2023/09/16 01:19:34;;;;;;;10.93;5.70;;;;;;;12.78;100.00;100105.06;5032452;28;20052;-93
2023/09/16 01:22:01;;;;;;;6.82;5.35;;;;;;;12.75;100.00;100110.47;5032678;28;20025;-93
2023/09/16 01:24:26;;;;;;;6.00;4.82;;;;;;;12.72;100.00;100108.06;5032705;28;20026;-93
2023/09/16 01:26:51;;;;;;;5.40;4.65;;;;;;;12.79;100.00;100108.47;5030827;28;20032;-93
2023/09/16 01:29:19;;;;;;;6.38;4.82;;;;;;;12.71;100.00;100108.19;5032438;28;20127;-92
2023/09/16 01:31:46;;;;;;;10.00;5.68;;;;;;;12.63;100.00;100114.75;5031125;28;20102;-93
2023/09/16 01:34:44;;;;;;;6.20;4.72;;;;;;;12.63;100.00;100113.91;5031125;28;20028;-94
2023/09/16 01:37:15;;;;;;;8.02;4.78;;;;;;;12.67;100.00;100111.94;5023098;28;20030;-94
2023/09/16 01:39:44;;;;;;;8.63;5.23;;;;;;;12.62;100.00;100117.44;5029794;28;20542;-93
2023/09/16 01:42:10;;;;;;;7.30;5.10;;;;;;;12.55;100.00;100105.84;5031347;28;20433;-94
2023/09/16 01:44:35;;;;;;;7.65;4.90;;;;;;;12.51;100.00;100109.59;5031843;28;20034;-93
2023/09/16 01:47:01;;;;;;;6.50;4.72;;;;;;;12.40;100.00;100106.00;5032138;28;20025;-93
2023/09/16 01:49:26;;;;;;;7.88;5.03;;;;;;;12.32;100.00;100105.72;5032092;28;20056;-94
2023/09/16 01:51:51;;;;;;;5.95;5.07;;;;;;;12.27;100.00;100110.41;5032051;28;20048;-93
2023/09/16 01:54:17;;;;;;;5.97;4.25;;;;;;;12.35;100.00;100105.50;5032212;28;20029;-93
2023/09/16 01:56:44;;;;;;;6.32;4.13;;;;;;;12.29;100.00;100099.91;5031876;28;20017;-93
2023/09/16 01:59:10;;;;;;;7.68;4.35;;;;;;;12.21;100.00;100105.63;5031617;28;20045;-95
2023/09/16 02:01:35;;;;;;;6.70;5.18;;;;;;;12.18;100.00;100106.69;5031544;28;20493;-94
2023/09/16 02:04:01;;;;;;;7.93;4.45;;;;;;;12.20;100.00;100106.59;5031937;28;20427;-94
2023/09/16 02:06:26;;;;;;;5.45;4.82;;;;;;;12.20;100.00;100106.59;5032070;28;20448;-93
2023/09/16 02:08:51;;;;;;;4.75;4.13;;;;;;;12.21;100.00;100108.22;5031796;28;20029;-93
2023/09/16 02:11:17;;;;;;;8.05;4.75;;;;;;;12.23;100.00;100114.13;5031882;28;20030;-93
2023/09/16 02:13:42;;;;;;;7.60;4.95;;;;;;;12.31;100.00;100119.56;5030256;28;20065;-94
2023/09/16 02:16:13;;;;;;;9.13;4.70;;;;;;;12.28;100.00;100114.63;5031577;28;20033;-93
2023/09/16 02:18:38;;;;;;;6.35;4.80;;;;;;;12.31;100.00;100116.16;5030438;28;20044;-95
2023/09/16 02:21:04;;;;;;;6.47;5.07;;;;;;;12.32;100.00;100110.91;5031841;28;20104;-96
2023/09/16 02:23:30;;;;;;;9.18;5.07;;;;;;;12.23;100.00;100111.53;5030421;28;20104;-94
2023/09/16 02:26:00;;;;;;;8.57;5.18;;;;;;;12.28;100.00;100109.44;5030488;28;20479;-94
2023/09/16 02:28:26;;;;;;;8.50;5.93;;;;;;;12.35;100.00;100107.28;5031686;28;20544;-93
2023/09/16 02:30:51;;;;;;;8.13;5.63;;;;;;;12.35;100.00;100108.09;5031327;28;20053;-94
2023/09/16 02:33:16;;;;;;;8.35;5.88;;;;;;;12.40;100.00;100107.78;5031715;28;20483;-93
2023/09/16 02:35:42;;;;;;;6.07;5.25;;;;;;;12.36;100.00;100107.19;5031683;28;20430;-94
2023/09/16 02:38:07;;;;;;;9.07;5.15;;;;;;;12.37;100.00;100106.22;5031664;28;20029;-94
2023/09/16 02:40:32;;;;;;;8.20;5.30;;;;;;;12.33;100.00;100107.38;5031790;28;20037;-95
2023/09/16 02:42:58;;;;;;;7.82;5.20;;;;;;;12.28;100.00;100109.44;5031066;28;20521;-93
2023/09/16 02:45:23;;;;;;;7.93;5.35;;;;;;;12.27;100.00;100118.16;5031296;28;20080;-95
2023/09/16 02:47:48;;;;;;;8.50;5.20;;;;;;;12.29;100.00;100116.28;5030543;28;20479;-95
2023/09/16 02:50:14;;;;;;;8.80;5.03;;;;;;;12.35;100.00;100105.50;5031522;28;20494;-94
2023/09/16 02:52:39;;;;;;;6.47;5.07;;;;;;;12.30;100.00;100110.19;5031559;28;20480;-94
2023/09/16 02:55:05;;;;;;;6.80;4.78;;;;;;;12.28;100.00;100119.81;5031687;28;20030;-95
2023/09/16 02:57:30;;;;;;;9.10;5.32;;;;;;;12.26;100.00;100119.06;5031488;28;20444;-92
2023/09/16 02:59:56;;;;;;;9.13;4.80;;;;;;;12.21;100.00;100115.97;5031200;28;20471;-93
2023/09/16 03:02:21;;;;;;;8.98;4.63;;;;;;;12.04;100.00;100124.09;5031448;28;20480;-95
2023/09/16 03:04:46;;;;;;;6.40;4.60;;;;;;;11.93;100.00;100117.06;5030345;28;20025;-93
2023/09/16 03:07:12;;;;;;;4.47;3.95;;;;;;;11.94;100.00;100116.94;5030197;28;20116;-95
2023/09/16 03:09:37;;;;;;;6.53;4.93;;;;;;;11.90;100.00;100117.25;5030414;28;20044;-95
2023/09/16 03:12:03;;;;;;;7.38;4.70;;;;;;;11.89;100.00;100111.25;5033229;28;20065;-94
2023/09/16 03:14:28;;;;;;;5.82;4.78;;;;;;;12.01;100.00;100109.59;5034460;28;20029;-94
2023/09/16 03:16:55;;;;;;;6.65;4.72;;;;;;;12.03;100.00;100107.75;5034932;28;20088;-94
2023/09/16 03:19:21;;;;;;;7.70;4.80;;;;;;;11.92;100.00;100108.47;5034789;28;20163;-94
2023/09/16 03:21:46;;;;;;;7.47;4.00;;;;;;;11.85;100.00;100107.22;5034805;28;20092;-94
2023/09/16 03:24:11;;;;;;;7.28;4.60;;;;;;;11.78;100.00;100100.81;5034640;28;20486;-93
2023/09/16 03:26:37;;;;;;;8.45;4.57;;;;;;;11.80;100.00;100101.50;5034899;28;20029;-94
2023/09/16 03:29:02;;;;;;;6.68;4.75;;;;;;;11.69;100.00;100101.44;5033538;28;20323;-93
2023/09/16 03:31:28;;;;;;;6.82;5.72;;;;;;;11.67;100.00;100104.09;5034662;28;20108;-93
2023/09/16 03:33:53;;;;;;;7.93;5.15;;;;;;;11.75;100.00;100106.16;5033182;28;20035;-94
2023/09/16 03:36:18;;;;;;;5.75;4.40;;;;;;;11.70;100.00;100103.06;5033249;28;20048;-93
2023/09/16 03:38:46;;;;;;;7.20;4.70;;;;;;;11.61;100.00;100103.69;5033375;28;20299;-93
2023/09/16 03:41:11;;;;;;;5.32;4.63;;;;;;;11.84;100.00;100102.97;5033588;28;20074;-94
2023/09/16 03:43:37;;;;;;;6.13;4.65;;;;;;;11.81;100.00;100090.25;5034594;28;20477;-93
2023/09/16 03:46:02;;;;;;;7.07;4.70;;;;;;;11.59;100.00;100090.88;5033181;28;20083;-94
2023/09/16 03:48:27;;;;;;;6.05;4.90;;;;;;;11.72;100.00;100080.53;5034943;28;20092;-94
2023/09/16 03:50:53;;;;;;;7.43;5.22;;;;;;;11.65;100.00;100079.28;5034508;28;20013;-94
2023/09/16 03:53:21;;;;;;;9.80;4.85;;;;;;;11.55;100.00;100079.91;5034821;28;20036;-94
2023/09/16 03:55:47;;;;;;;8.73;5.72;;;;;;;11.51;100.00;100081.06;5034983;28;20100;-94
2023/09/16 03:58:12;;;;;;;8.82;5.65;;;;;;;11.72;100.00;100077.94;5034935;28;20026;-94
2023/09/16 04:00:37;;;;;;;6.03;5.43;;;;;;;11.59;100.00;100074.56;5034834;28;20048;-95
2023/09/16 04:03:03;;;;;;;8.30;6.45;;;;;;;11.54;100.00;100088.59;5033623;28;20360;-93
2023/09/16 04:05:28;;;;;;;10.00;5.97;;;;;;;11.52;100.00;100085.28;5034530;28;20076;-95
2023/09/16 04:07:54;;;;;;;9.60;6.25;;;;;;;11.41;100.00;100095.53;5033213;28;20052;-93
2023/09/16 04:10:19;;;;;;;10.00;6.97;;;;;;;11.40;100.00;100100.78;5034444;28;20021;-94
2023/09/16 04:12:44;;;;;;;13.57;7.78;;;;;;;11.37;100.00;100101.81;5033098;28;20514;-94
2023/09/16 04:15:10;;;;;;;14.05;7.05;;;;;;;11.46;100.00;100108.97;5034501;28;20033;-93
2023/09/16 04:17:35;;;;;;;9.38;6.57;;;;;;;11.43;100.00;100106.56;5034530;28;20025;-94
2023/09/16 04:20:05;;;;;;;11.95;6.53;;;;;;;11.36;100.00;100110.47;5034527;28;20529;-93
2023/09/16 04:22:31;;;;;;;7.78;5.53;;;;;;;11.27;100.00;100111.94;5034141;28;20024;-94
2023/09/16 04:24:56;;;;;;;9.77;5.55;;;;;;;11.32;100.00;100109.88;5033794;28;20029;-94
2023/09/16 04:27:21;;;;;;;8.05;5.93;;;;;;;11.33;100.00;100102.94;5034061;28;20018;-94
2023/09/16 04:29:47;;;;;;;6.22;5.35;;;;;;;11.29;100.00;100104.06;5034420;28;20104;-94
2023/09/16 04:32:12;;;;;;;7.70;5.65;;;;;;;11.32;100.00;100106.47;5033465;28;20107;-93
2023/09/16 04:34:37;;;;;;;7.60;5.63;;;;;;;11.26;100.00;100101.69;5034256;28;20025;-94
2023/09/16 04:37:06;;;;;;;7.78;5.85;;;;;;;11.54;100.00;100106.69;5034129;28;20025;-95
2023/09/16 04:39:31;;;;;;;10.02;6.43;;;;;;;11.78;100.00;100099.03;5033906;28;20065;-94
2023/09/16 04:41:57;;;;;;;7.25;5.82;;;;;;;11.62;100.00;100102.78;5032497;28;20064;-93
2023/09/16 04:44:23;;;;;;;8.68;5.70;;;;;;;11.50;100.00;100096.66;5034141;28;20049;-93
2023/09/16 04:46:53;;;;;;;12.68;7.13;;;;;;;11.43;100.00;100106.56;5034096;28;20423;-94
2023/09/16 04:49:19;;;;;;;7.55;6.40;;;;;;;11.41;100.00;100111.03;5033959;28;20022;-94
2023/09/16 04:51:44;;;;;;;10.05;7.15;;;;;;;11.50;100.00;100107.00;5034092;28;20033;-94
2023/09/16 04:54:11;;;;;;;10.60;6.82;;;;;;;11.51;100.00;100099.16;5033934;28;20076;-93
2023/09/16 04:56:36;;;;;;;8.07;5.78;;;;;;;11.51;100.00;100093.13;5032311;28;20037;-94
2023/09/16 04:59:01;;;;;;;8.70;7.20;;;;;;;11.56;100.00;100085.94;5030874;28;20431;-93
2023/09/16 05:01:29;;;;;;;13.07;9.32;;;;;;;11.81;100.00;100085.09;5031503;28;20040;-94
2023/09/16 05:03:54;;;;;;;14.52;10.68;;;;;;;12.02;100.00;100074.22;5031896;28;20026;-93
2023/09/16 05:06:20;;;;;;;18.40;10.73;;;;;;;12.25;100.00;100083.78;5032843;28;20040;-94
2023/09/16 05:08:45;;;;;;;14.63;9.90;;;;;;;12.19;100.00;100079.03;5031699;28;20022;-93
2023/09/16 05:11:10;;;;;;;14.40;9.30;;;;;;;12.18;100.00;100085.16;5031587;28;20383;-93
2023/09/16 05:13:36;;;;;;;18.00;8.40;;;;;;;12.10;100.00;100093.47;5031213;28;20030;-94
2023/09/16 05:16:03;;;;;;;13.88;8.00;;;;;;;12.06;100.00;100098.94;5031721;28;20021;-94
2023/09/16 05:18:28;;;;;;;13.20;8.27;;;;;;;12.07;100.00;100110.94;5031387;28;20064;-94
2023/09/16 05:20:54;;;;;;;11.18;8.15;;;;;;;12.06;100.00;100106.72;5031531;28;20467;-93
2023/09/16 05:23:23;;;;;;;9.13;7.88;;;;;;;12.07;100.00;100108.34;5032662;28;20044;-94
2023/09/16 05:25:49;;;;;;;9.45;6.63;;;;;;;11.99;100.00;100114.06;5032868;28;20065;-93
2023/09/16 05:28:15;;;;;;;9.25;7.93;;;;;;;11.91;100.00;100111.16;5032522;28;20495;-93
2023/09/16 05:30:44;;;;;;;10.57;8.18;;;;;;;12.02;100.00;100115.59;5032238;28;20070;-93
2023/09/16 05:33:10;;;;;;;7.88;6.72;;;;;;;12.03;100.00;100119.84;5031021;28;20112;-94
2023/09/16 05:35:38;;;;;;;8.68;6.10;;;;;;;12.06;100.00;100120.47;5030156;28;20072;-93
2023/09/16 05:38:04;;;;;;;8.38;6.40;;;;;;;12.08;100.00;100115.19;5032202;28;20047;-93
2023/09/16 05:40:30;;;;;;;12.23;6.50;;;;;;;12.12;100.00;100117.47;5032450;28;20026;-95
2023/09/16 05:42:55;;;;;;;10.77;7.30;;;;;;;12.20;100.00;100117.75;5030057;28;20033;-93
2023/09/16 05:45:20;;;;;;;10.35;7.97;;;;;;;12.25;100.00;100119.19;5030251;28;20128;-94
2023/09/16 05:47:48;;;;;;;9.75;7.72;;;;;;;12.12;100.00;100121.78;5036029;28;20084;-93
2023/09/16 05:50:13;;;;;;;8.88;7.75;;;;;;;12.18;100.00;100121.38;5032170;28;20021;-95
2023/09/16 05:52:39;;;;;;;10.63;7.82;;;;;;;12.20;100.00;100127.28;5012778;28;20357;-93
2023/09/16 05:55:05;;;;;;;11.48;8.10;;;;;;;12.16;100.00;100137.00;5012385;28;20262;-93
2023/09/16 05:57:30;;;;;;;8.80;7.57;;;;;;;12.18;100.00;100144.66;5011685;28;20104;-96
2023/09/16 05:59:55;;;;;;;10.27;7.40;;;;;;;12.20;100.00;100147.97;5011516;28;20034;-94
2023/09/16 06:02:21;;;;;;;13.60;8.02;;;;;;;12.23;100.00;100152.94;5028713;28;20060;-93
2023/09/16 06:04:46;;;;;;;11.48;8.80;;;;;;;12.25;100.00;100156.25;5031985;28;20026;-94
2023/09/16 06:07:12;;;;;;;12.75;7.47;;;;;;;12.29;100.00;100168.06;5031989;28;20033;-95
2023/09/16 06:09:37;;;;;;;15.05;8.55;;;;;;;12.26;100.00;100177.78;5032552;28;20069;-94
2023/09/16 06:12:03;;;;;;;13.27;9.13;;;;;;;12.35;100.00;100193.50;5030452;28;20033;-95
2023/09/16 06:14:28;;;;;;;10.93;9.18;;;;;;;12.49;100.00;100210.66;5031915;28;20033;-95
2023/09/16 06:16:54;;;;;;;11.85;9.27;;;;;;;12.57;100.00;100215.31;5028551;28;20036;-95
2023/09/16 06:19:19;;;;;;;11.77;8.55;;;;;;;12.41;100.00;100224.16;5047283;28;20032;-93
2023/09/16 06:21:45;;;;;;;13.55;9.25;;;;;;;12.44;100.00;100228.28;5013497;28;20030;-94
2023/09/16 06:24:11;;;;;;;12.50;8.90;;;;;;;12.48;100.00;100234.06;5035873;28;20577;-94
2023/09/16 06:26:36;;;;;;;14.45;10.20;;;;;;;12.46;100.00;100241.09;5032605;28;20052;-94
2023/09/16 06:29:02;;;;;;;14.98;10.52;;;;;;;12.48;100.00;100257.38;5032973;28;20025;-95
2023/09/16 06:31:27;;;;;;;12.48;10.30;;;;;;;12.48;100.00;100271.13;5026668;28;20025;-92
2023/09/16 06:33:54;;;;;;;12.63;9.93;;;;;;;12.53;100.00;100269.06;5029588;28;20480;-92
2023/09/16 06:36:19;;;;;;;12.80;10.75;;;;;;;12.66;100.00;100279.41;5016448;28;20026;-91
2023/09/16 06:38:45;;;;;;;17.48;11.77;;;;;;;13.00;100.00;100269.31;5019044;28;20041;-95
2023/09/16 06:41:10;;;;;;;16.65;11.55;;;;;;;13.01;100.00;100253.63;5013522;28;20087;-95
2023/09/16 06:43:36;;;;;;;14.85;10.45;;;;;;;12.96;100.00;100266.09;5011148;28;20500;-93
2023/09/16 06:46:01;;;;;;;19.27;11.73;;;;;;;12.90;100.00;100271.72;5012569;28;20030;-94
2023/09/16 06:48:26;;;;;;;17.23;11.35;;;;;;;12.88;100.00;100280.53;5016737;28;20061;-95
2023/09/16 06:50:52;;;;;;;17.13;12.32;;;;;;;13.18;100.00;100280.94;5030524;28;21050;-95
2023/09/16 06:53:17;;;;;;;24.55;13.52;;;;;;;13.00;100.00;100282.25;5030243;28;20037;-93
2023/09/16 06:55:43;;;;;;;20.17;14.43;;;;;;;13.33;100.00;100265.28;5042757;28;20025;-95
2023/09/16 06:58:08;;;;;;;22.77;15.63;;;;;;;13.32;100.00;100268.81;5025084;28;20026;-90
2023/09/16 07:00:36;;;;;;;24.55;16.08;;;;;;;13.18;100.00;100285.31;5023386;28;20033;-93
2023/09/16 07:03:02;;;;;;;18.48;14.43;;;;;;;13.13;100.00;100287.41;5022433;28;20026;-96
2023/09/16 07:05:31;;;;;;;25.02;15.95;;;;;;;13.21;100.00;100283.31;5026898;28;20037;-93
2023/09/16 07:07:58;;;;;;;22.88;16.75;;;;;;;13.43;100.00;100280.03;5036977;28;20467;-96
2023/09/16 07:10:25;;;;;;;21.83;15.77;;;;;;;13.44;100.00;100283.50;5032868;28;20036;-93
2023/09/16 07:12:51;;;;;;;28.08;15.52;;;;;;;13.45;100.00;100278.19;5040442;28;20482;-94
2023/09/16 07:15:18;;;;;;;23.75;17.08;;;;;;;13.45;100.00;100269.56;5051777;23;20112;-93
2023/09/16 07:17:43;;;;;;;24.48;16.55;;;;;;;13.49;100.00;100278.81;5054166;28;20056;-93
2023/09/16 07:20:10;;;;;;;18.52;14.88;;;;;;;13.48;100.00;100271.94;5054846;28;20028;-91
2023/09/16 07:22:35;;;;;;;22.27;16.23;;;;;;;13.53;100.00;100269.84;5053974;28;20112;-93
2023/09/16 07:25:01;;;;;;;25.55;17.95;;;;;;;13.61;100.00;100267.53;5170268;22;20403;-94
2023/09/16 07:27:27;;;;;;;18.40;14.82;;;;;;;13.73;100.00;100265.81;5048226;28;20032;-94
2023/09/16 07:29:52;;;;;;;22.38;16.52;;;;;;;13.74;100.00;100274.41;5047883;28;20501;-93
2023/09/16 07:32:17;;;;;;;25.20;15.90;;;;;;;13.75;100.00;100279.47;5049405;28;20025;-94
2023/09/16 07:34:43;;;;;;;20.30;16.13;;;;;;;13.65;100.00;100278.50;5049809;28;20533;-92
2023/09/16 07:37:08;;;;;;;23.40;16.42;;;;;;;13.93;100.00;100279.09;5049018;28;20068;-93
2023/09/16 07:39:33;;;;;;;20.55;15.80;;;;;;;13.85;100.00;100277.03;5048949;28;20124;-93
2023/09/16 07:41:59;;;;;;;18.58;15.00;;;;;;;13.81;100.00;100279.03;5038837;28;20109;-94
2023/09/16 07:44:26;;;;;;;21.77;16.27;;;;;;;13.74;100.00;100272.66;5030604;28;20112;-93
2023/09/16 07:46:51;;;;;;;19.10;13.75;;;;;;;13.75;100.00;100273.47;5034657;28;20067;-96
2023/09/16 07:49:17;;;;;;;21.85;14.70;;;;;;;13.77;100.00;100267.22;5033374;28;20053;-96
2023/09/16 07:51:45;;;;;;;26.55;17.17;;;;;;;13.84;100.00;100267.59;5033207;28;20017;-95
2023/09/16 07:54:13;;;;;;;22.90;16.90;;;;;;;13.99;100.00;100265.63;5033735;28;20280;-96
2023/09/16 07:56:38;;;;;;;24.90;16.95;;;;;;;14.01;100.00;100268.97;5034613;28;20434;-95
2023/09/16 07:59:04;;;;;;;22.33;15.90;;;;;;;13.99;100.00;100266.47;5032267;28;20041;-95
2023/09/16 08:01:29;;;;;;;27.70;17.38;;;;;;;14.04;100.00;100274.72;5033740;28;20032;-96
2023/09/16 08:04:01;;;;;;;23.25;17.05;;;;;;;14.03;100.00;100267.06;5112593;22;20076;-96
2023/09/16 08:06:26;;;;;;;21.13;16.98;;;;;;;14.09;100.00;100272.66;5046703;28;20042;-95
2023/09/16 08:08:54;;;;;;;25.42;17.35;;;;;;;14.12;100.00;100271.59;5034776;28;20751;-96
2023/09/16 08:11:19;;;;;;;25.15;18.50;;;;;;;14.22;100.00;100261.34;5036133;28;20116;-91
2023/09/16 08:13:45;;;;;;;28.25;20.45;;;;;;;14.22;100.00;100256.97;5033645;28;20164;-94
2023/09/16 08:16:11;;;;;;;26.25;18.77;;;;;;;14.25;100.00;100255.91;5034082;28;20161;-96
2023/09/16 08:18:36;;;;;;;28.08;19.42;;;;;;;14.24;100.00;100256.84;5034750;28;20025;-96
2023/09/16 08:21:01;;;;;;;22.98;18.90;;;;;;;14.18;100.00;100265.91;5034679;28;20021;-92
2023/09/16 08:23:27;;;;;;;26.77;19.77;;;;;;;14.16;100.00;100257.41;5043165;28;20024;-95
2023/09/16 08:25:53;;;;;;;29.10;19.33;;;;;;;14.22;100.00;100266.53;5035272;28;20021;-95
2023/09/16 08:28:42;;;;;;;24.35;19.95;;;;;;;14.27;100.00;100274.78;5043856;28;20395;-96
2023/09/16 08:31:07;;;;;;;26.42;20.40;;;;;;;14.20;100.00;100278.78;5041680;28;20040;-96
2023/09/16 08:33:37;;;;;;;27.92;20.38;;;;;;;14.22;100.00;100282.09;5042360;28;20025;-95
2023/09/16 08:36:02;;;;;;;25.30;18.27;;;;;;;14.17;100.00;100279.00;5037307;28;20029;-96
2023/09/16 08:38:28;;;;;;;23.55;16.63;;;;;;;14.25;100.00;100281.88;5035379;28;20032;-96
2023/09/16 08:41:09;;;;;;;29.02;18.13;;;;;;;14.15;100.00;100276.53;5037976;28;20116;-93
2023/09/16 08:43:39;;;;;;;23.98;17.23;;;;;;;14.10;100.00;100276.88;5231724;22;20488;-95
2023/09/16 08:46:09;;;;;;;19.52;16.00;;;;;;;14.10;100.00;100269.09;5035705;28;20025;-95
2023/09/16 08:48:39;;;;;;;24.30;18.20;;;;;;;14.13;100.00;100268.03;5035127;28;20045;-96
2023/09/16 08:51:07;;;;;;;21.25;17.70;;;;;;;14.26;100.00;100270.53;5040763;28;20053;-96
2023/09/16 08:53:36;;;;;;;23.95;17.35;;;;;;;14.38;100.00;100267.00;5036456;28;20034;-95
2023/09/16 08:56:04;;;;;;;22.92;16.90;;;;;;;14.46;100.00;100264.66;5037827;28;20029;-96
2023/09/16 08:58:35;;;;;;;22.80;17.95;;;;;;;14.53;100.00;100265.88;5037538;28;20033;-95
2023/09/16 09:01:02;;;;;;;21.42;17.70;;;;;;;14.60;100.00;100255.81;5035310;28;20025;-95
2023/09/16 09:06:03;;;;;;;20.77;17.52;;;;;;;14.67;100.00;100251.00;5095228;22;20400;-96
2023/09/16 09:08:31;;;;;;;29.23;18.77;;;;;;;14.74;100.00;100258.19;5030100;28;20105;-96
2023/09/16 09:10:57;;;;;;;25.00;18.52;;;;;;;14.90;100.00;100251.78;5023333;28;20420;-95
2023/09/16 09:13:25;;;;;;;26.15;19.17;;;;;;;14.92;100.00;100250.75;5022015;28;20184;-95
2023/09/16 09:15:56;;;;;;;25.83;21.27;;;;;;;14.96;100.00;100251.31;5014802;28;20017;-92
2023/09/16 09:18:24;;;;;;;28.20;20.92;;;;;;;15.10;100.00;100258.03;5015499;28;20034;-94
2023/09/16 09:20:51;;;;;;;25.40;20.42;;;;;;;15.05;100.00;100254.97;5018001;28;20111;-95
2023/09/16 09:23:16;;;;;;;23.58;19.17;;;;;;;15.02;100.00;100266.44;5004658;28;20029;-96
2023/09/16 09:25:41;;;;;;;23.63;19.05;;;;;;;15.03;100.00;100264.66;5013575;28;20029;-96
2023/09/16 09:28:07;;;;;;;22.20;19.55;;;;;;;15.05;100.00;100260.16;5024013;28;20491;-95
2023/09/16 09:30:33;;;;;;;22.73;18.13;;;;;;;15.15;100.00;100271.50;5031337;28;20262;-95
2023/09/16 09:32:59;;;;;;;26.52;19.77;;;;;;;15.17;100.00;100274.78;5032301;28;20044;-96
2023/09/16 09:35:28;;;;;;;22.70;18.02;;;;;;;15.21;100.00;100281.38;5023946;28;20097;-96
2023/09/16 09:37:54;;;;;;;28.55;19.10;;;;;;;15.28;100.00;100276.53;5026403;28;20045;-96
2023/09/16 09:40:21;;;;;;;23.88;19.10;;;;;;;15.29;100.00;100281.63;5017182;28;20029;-96
2023/09/16 09:42:49;;;;;;;21.85;17.00;;;;;;;15.33;100.00;100280.41;5015469;28;20040;-95
2023/09/16 09:45:16;;;;;;;21.83;17.77;;;;;;;15.39;100.00;100273.91;5029768;28;20025;-96
2023/09/16 09:47:42;;;;;;;20.88;16.52;;;;;;;15.43;100.00;100275.28;5022034;28;20017;-94
2023/09/16 09:50:16;;;;;;;21.52;17.25;;;;;;;15.54;100.00;100277.88;5021827;28;20029;-96
2023/09/16 09:52:46;;;;;;;18.90;15.60;;;;;;;15.61;100.00;100278.19;5016915;28;20472;-96
2023/09/16 09:55:15;;;;;;;18.67;16.52;;;;;;;15.64;100.00;100267.53;5400455;22;20020;-96
2023/09/16 09:57:41;;;;;;;24.83;19.65;;;;;;;15.73;100.00;100274.63;5030453;28;20041;-96
2023/09/16 10:00:07;;;;;;;28.98;19.80;;;;;;;15.88;100.00;100269.94;5017696;28;20356;-95
2023/09/16 10:02:32;;;;;;;23.27;19.85;;;;;;;16.08;100.00;100270.88;5013082;28;20112;-95
2023/09/16 10:05:02;;;;;;;25.05;20.05;;;;;;;16.30;100.00;100269.09;5027462;28;20121;-96
2023/09/16 10:07:33;;;;;;;22.88;19.55;;;;;;;16.64;100.00;100274.88;5025435;28;20056;-94
2023/09/16 10:09:59;;;;;;;;;;;;;;;16.85;100.00;100275.69;5026008;28;20037;-96
2023/09/16 10:12:24;;;;;;;24.75;18.92;;;;;;;16.87;100.00;100285.94;5098104;22;19905;-94
2023/09/16 10:14:53;;;;;;;25.88;19.88;;;;;;;16.84;100.00;100292.25;5021782;28;20034;-96
2023/09/16 10:17:21;;;;;;;20.55;18.17;;;;;;;16.86;100.00;100289.53;5029200;28;20061;-96
2023/09/16 10:19:47;;;;;;;23.35;19.70;;;;;;;16.90;100.00;100290.94;5037424;28;20033;-96
2023/09/16 10:24:43;;;;;;;23.83;18.65;;;;;;;16.88;100.00;100292.84;5058779;28;20045;-96
2023/09/16 10:27:17;;;;;;;23.70;19.33;;;;;;;16.94;100.00;100296.69;5062553;28;20029;-96
2023/09/16 10:29:44;;;;;;;20.73;18.33;;;;;;;17.02;100.00;100296.84;5063021;28;20029;-96
2023/09/16 10:32:12;;;;;;;26.85;18.83;;;;;;;17.18;100.00;100298.94;5068411;28;20099;-96
2023/09/16 10:34:38;;;;;;;21.13;17.70;;;;;;;17.09;100.00;100293.59;5063925;28;20032;-96
2023/09/16 10:37:04;;;;;;;22.55;18.70;;;;;;;16.98;100.00;100290.25;5062601;28;20045;-96
2023/09/16 10:39:31;;;;;;;23.38;19.30;;;;;;;16.97;100.00;100292.03;5063311;28;20055;-96
2023/09/16 10:41:57;;;;;;;22.17;19.17;;;;;;;17.08;100.00;100281.47;5056343;28;20025;-96
2023/09/16 10:44:24;;;;;;;25.65;19.15;;;;;;;17.19;100.00;100284.94;5056921;28;20033;-96
2023/09/16 10:46:50;;;;;;;21.83;18.90;;;;;;;17.27;100.00;100282.50;5055886;28;20040;-96
2023/09/16 10:49:16;;;;;;;23.15;18.77;;;;;;;17.06;100.00;100285.19;5056065;28;20170;-96
2023/09/16 10:51:41;;;;;;;28.30;20.10;;;;;;;17.02;100.00;100287.25;5056377;28;20493;-96
2023/09/16 10:54:14;;;;;;;29.60;20.85;;;;;;;17.08;100.00;100291.09;5049356;28;20494;-96
2023/09/16 10:56:43;;;;;;;29.00;20.55;;;;;;;17.26;100.00;100283.44;5051501;28;20039;-96
2023/09/16 10:59:13;;;;;;;26.00;19.58;;;;;;;17.27;100.00;100287.72;5053905;28;20094;-95
2023/09/16 11:01:55;;;;;;;28.10;20.63;;;;;;;17.33;100.00;100290.59;5044353;28;20017;-96
2023/09/16 11:04:20;;;;;;;28.27;20.02;;;;;;;17.39;100.00;100291.84;5053104;28;20017;-96
2023/09/16 11:06:52;;;;;;;28.77;20.90;;;;;;;17.30;100.00;100290.03;5052837;28;20029;-95
2023/09/16 11:09:21;;;;;;;27.17;20.65;;;;;;;17.38;100.00;100298.00;5047813;28;20021;-95
2023/09/16 11:11:48;;;;;;;30.83;20.48;;;;;;;17.43;100.00;100289.78;5049500;28;20033;-95